createdAt,value
2022-11-16T00:02:16.112Z,30.20
2022-11-16T00:05:18.805Z,29.30
2022-11-16T00:08:20.509Z,30.30
2022-11-16T00:11:22.229Z,29.30
2022-11-16T00:14:26.715Z,30.80
2022-11-16T00:17:28.415Z,30.40
2022-11-16T00:20:30.137Z,30.40
2022-11-16T00:23:34.505Z,31.40
2022-11-16T00:26:36.189Z,33.50
2022-11-16T00:29:37.987Z,33.10
2022-11-16T00:32:39.681Z,32.10
2022-11-16T00:35:41.700Z,33.20
2022-11-16T00:38:43.453Z,37.40
2022-11-16T00:41:48.337Z,36.80
2022-11-16T00:44:50.128Z,37.00
2022-11-16T00:47:55.277Z,37.70
2022-11-16T00:51:00.941Z,35.10
2022-11-16T00:54:04.463Z,37.10
2022-11-16T00:57:08.065Z,35.10
2022-11-16T01:00:11.112Z,36.20
2022-11-16T01:03:12.989Z,38.70
2022-11-16T01:06:16.563Z,36.00
2022-11-16T01:09:18.265Z,36.50
2022-11-16T01:12:22.477Z,35.90
2022-11-16T01:15:26.342Z,34.40
2022-11-16T01:18:27.994Z,34.70
2022-11-16T01:21:29.883Z,35.00
2022-11-16T01:24:31.867Z,35.30
2022-11-16T01:27:33.760Z,34.20
2022-11-16T01:30:37.313Z,33.50
2022-11-16T01:33:42.610Z,33.40
2022-11-16T01:36:52.201Z,34.00
2022-11-16T01:39:54.199Z,33.50
2022-11-16T01:42:56.510Z,33.50
2022-11-16T01:45:58.347Z,33.50
2022-11-16T01:49:10.055Z,32.10
2022-11-16T01:52:16.657Z,31.80
2022-11-16T01:55:18.565Z,31.10
2022-11-16T01:58:35.475Z,30.80
2022-11-16T02:01:49.336Z,30.50
2022-11-16T02:04:54.375Z,32.70
2022-11-16T02:08:44.381Z,30.90
2022-11-16T02:15:55.707Z,31.30
2022-11-16T02:19:30.350Z,31.50
2022-11-16T02:23:16.639Z,30.50
2022-11-16T02:26:55.664Z,30.10
2022-11-16T02:30:00.553Z,29.50
2022-11-16T02:33:11.617Z,30.80
2022-11-16T02:36:20.087Z,30.10
2022-11-16T02:39:26.616Z,30.60
2022-11-16T02:42:34.654Z,31.00
2022-11-16T02:45:42.210Z,32.00
2022-11-16T02:48:49.772Z,30.60
2022-11-16T02:51:52.837Z,30.30
2022-11-16T02:54:55.240Z,30.80
2022-11-16T02:58:01.323Z,30.60
2022-11-16T03:01:12.465Z,30.30
2022-11-16T03:04:23.642Z,30.20
2022-11-16T03:07:30.230Z,29.00
2022-11-16T03:10:54.766Z,28.40
2022-11-16T03:14:01.913Z,27.60
2022-11-16T03:17:07.493Z,29.30
2022-11-16T03:20:14.752Z,27.30
2022-11-16T03:23:17.796Z,28.40
2022-11-16T03:26:24.541Z,28.30
2022-11-16T03:29:36.050Z,29.30
2022-11-16T03:33:00.117Z,30.80
2022-11-16T03:36:31.512Z,29.10
2022-11-16T03:39:37.215Z,29.20
2022-11-16T03:42:41.143Z,29.50
2022-11-16T03:45:45.042Z,28.50
2022-11-16T03:48:46.932Z,31.90
2022-11-16T03:51:56.861Z,32.90
2022-11-16T03:54:58.618Z,30.50
2022-11-16T03:58:00.593Z,29.60
2022-11-16T04:01:02.956Z,31.30
2022-11-16T04:04:05.390Z,30.90
2022-11-16T04:07:26.926Z,30.00
2022-11-16T04:10:47.329Z,29.40
2022-11-16T04:14:09.480Z,28.60
2022-11-16T04:17:34.359Z,30.30
2022-11-16T04:20:54.762Z,29.90
2022-11-16T04:24:11.670Z,31.10
2022-11-16T04:27:34.035Z,31.60
2022-11-16T04:30:54.856Z,31.30
2022-11-16T04:34:15.295Z,28.60
2022-11-16T04:37:39.356Z,29.00
2022-11-16T04:40:41.093Z,28.60
2022-11-16T04:43:44.354Z,29.80
2022-11-16T04:47:05.056Z,30.60
2022-11-16T04:50:07.811Z,30.40
2022-11-16T04:53:11.033Z,30.10
2022-11-16T04:56:19.213Z,28.20
2022-11-16T04:59:21.919Z,28.10
2022-11-16T05:02:23.639Z,27.80
2022-11-16T05:05:28.476Z,27.70
2022-11-16T05:11:32.854Z,26.70
2022-11-16T05:14:34.606Z,26.40
2022-11-16T05:17:36.447Z,28.00
2022-11-16T05:21:01.349Z,27.40
2022-11-16T05:24:24.532Z,27.70
2022-11-16T05:27:28.365Z,26.60
2022-11-16T05:30:30.459Z,27.40
2022-11-16T05:33:33.102Z,28.00
2022-11-16T05:36:35.181Z,25.90
2022-11-16T05:39:37.332Z,26.90
2022-11-16T05:42:39.096Z,26.70
2022-11-16T05:45:42.249Z,27.10
2022-11-16T05:48:43.840Z,25.80
2022-11-16T05:51:46.556Z,28.00
2022-11-16T05:54:49.293Z,27.10
2022-11-16T05:57:51.317Z,29.60
2022-11-16T06:00:53.082Z,29.40
2022-11-16T06:03:54.885Z,22.20
2022-11-16T06:06:56.848Z,30.20
2022-11-16T06:10:02.990Z,30.30
2022-11-16T06:13:05.840Z,34.70
2022-11-16T06:16:08.107Z,36.20
2022-11-16T06:22:11.833Z,35.20
2022-11-16T06:25:13.582Z,37.90
2022-11-16T06:28:17.656Z,37.40
2022-11-16T06:31:19.464Z,36.60
2022-11-16T06:34:21.171Z,38.20
2022-11-16T06:37:23.145Z,38.40
2022-11-16T06:40:25.115Z,37.70
2022-11-16T06:43:27.040Z,36.70
2022-11-16T06:49:32.073Z,40.60
2022-11-16T06:52:35.550Z,45.00
2022-11-16T06:55:37.715Z,43.50
2022-11-16T06:58:41.677Z,43.80
2022-11-16T07:01:44.870Z,42.40
2022-11-16T07:04:48.089Z,44.60
2022-11-16T07:11:04.263Z,40.30
2022-11-16T07:14:06.416Z,41.00
2022-11-16T07:17:09.822Z,41.30
2022-11-16T07:20:11.779Z,41.90
2022-11-16T07:23:14.412Z,43.50
2022-11-16T07:26:19.262Z,45.00
2022-11-16T07:29:29.186Z,42.50
2022-11-16T07:32:59.941Z,45.40
2022-11-16T07:36:21.640Z,43.60
2022-11-16T07:39:23.257Z,40.60
2022-11-16T07:42:24.902Z,40.00
2022-11-16T07:45:35.955Z,38.80
2022-11-16T07:48:42.620Z,40.20
2022-11-16T07:51:53.462Z,40.00
2022-11-16T07:55:07.526Z,39.50
2022-11-16T07:58:10.046Z,40.70
2022-11-16T08:01:15.311Z,42.70
2022-11-16T08:04:17.762Z,42.00
2022-11-16T08:07:19.918Z,40.10
2022-11-16T08:10:26.510Z,39.20
2022-11-16T08:13:31.462Z,41.00
2022-11-16T08:16:33.440Z,49.60
2022-11-16T08:19:41.958Z,52.10
2022-11-16T08:25:46.507Z,50.90
2022-11-16T08:28:53.103Z,51.80
2022-11-16T08:31:58.365Z,49.60
2022-11-16T08:38:02.631Z,46.50
2022-11-16T08:41:04.794Z,47.60
2022-11-16T08:44:07.264Z,40.30
2022-11-16T08:47:10.777Z,45.10
2022-11-16T08:50:20.075Z,44.30
2022-11-16T08:53:21.744Z,43.30
2022-11-16T08:56:26.492Z,44.10
2022-11-16T08:59:29.057Z,42.60
2022-11-16T09:02:38.311Z,41.80
2022-11-16T09:05:41.921Z,41.80
2022-11-16T09:08:45.474Z,40.20
2022-11-16T09:11:47.263Z,41.70
2022-11-16T09:14:48.989Z,38.10
2022-11-16T09:17:54.206Z,36.80
2022-11-16T09:20:56.621Z,35.20
2022-11-16T09:23:58.553Z,33.20
2022-11-16T09:27:00.870Z,33.40
2022-11-16T09:33:05.256Z,27.30
2022-11-16T09:36:08.770Z,28.30
2022-11-16T09:39:30.039Z,26.00
2022-11-16T09:45:54.513Z,25.40
2022-11-16T09:48:58.915Z,26.70
2022-11-16T09:52:04.130Z,25.10
2022-11-16T09:55:23.473Z,23.50
2022-11-16T09:58:35.226Z,23.90
2022-11-16T10:01:52.070Z,26.50
2022-11-16T10:05:20.986Z,27.50
2022-11-16T10:08:35.639Z,26.90
2022-11-16T10:11:43.946Z,25.50
2022-11-16T10:15:22.931Z,32.00
2022-11-16T10:18:49.251Z,27.60
2022-11-16T10:22:06.007Z,24.90
2022-11-16T10:25:29.109Z,21.10
2022-11-16T10:28:57.503Z,20.10
2022-11-16T10:32:14.709Z,20.00
2022-11-16T10:35:23.631Z,19.80
2022-11-16T10:38:30.427Z,17.70
2022-11-16T10:41:38.665Z,18.30
2022-11-16T10:44:48.621Z,17.10
2022-11-16T10:48:02.665Z,15.90
2022-11-16T10:51:07.005Z,16.10
2022-11-16T10:54:16.797Z,16.50
2022-11-16T10:57:18.984Z,16.50
2022-11-16T11:03:36.218Z,11.70
2022-11-16T11:09:43.088Z,9.30
2022-11-16T11:13:05.854Z,10.50
2022-11-16T11:16:17.671Z,10.50
2022-11-16T11:19:29.026Z,9.00
2022-11-16T11:22:42.042Z,8.90
2022-11-16T11:25:55.507Z,8.50
2022-11-16T11:29:00.783Z,8.70
2022-11-16T11:32:07.294Z,8.20
2022-11-16T11:35:26.386Z,8.50
2022-11-16T11:38:28.671Z,9.10
2022-11-16T11:41:36.689Z,8.60
2022-11-16T11:44:49.878Z,9.00
2022-11-16T11:47:58.424Z,7.30
2022-11-16T11:51:11.502Z,6.90
2022-11-16T11:54:22.380Z,7.90
2022-11-16T11:57:25.142Z,8.10
2022-11-16T12:00:27.092Z,8.10
2022-11-16T12:03:43.839Z,7.40
2022-11-16T12:06:56.633Z,8.10
2022-11-16T12:10:16.241Z,8.80
2022-11-16T12:13:42.533Z,8.80
2022-11-16T12:16:57.240Z,7.80
2022-11-16T12:20:07.880Z,7.80
2022-11-16T12:23:24.653Z,8.70
2022-11-16T12:26:34.175Z,7.00
2022-11-16T12:30:07.343Z,6.40
2022-11-16T12:33:22.818Z,6.00
2022-11-16T12:36:39.529Z,5.00
2022-11-16T12:39:52.497Z,4.60
2022-11-16T12:43:20.308Z,3.90
2022-11-16T12:46:34.467Z,3.90
2022-11-16T12:49:48.144Z,3.90
2022-11-16T12:53:24.067Z,4.30
2022-11-16T12:56:48.683Z,3.60
2022-11-16T13:00:11.217Z,3.70
2022-11-16T13:03:19.974Z,3.50
2022-11-16T13:06:30.012Z,3.60
2022-11-16T13:09:37.046Z,2.70
2022-11-16T13:12:39.441Z,2.70
2022-11-16T13:15:42.689Z,2.80
2022-11-16T13:18:44.584Z,2.90
2022-11-16T13:22:13.215Z,3.10
2022-11-16T13:25:35.829Z,2.90
2022-11-16T13:31:50.096Z,3.20
2022-11-16T13:34:52.607Z,5.40
2022-11-16T13:37:55.827Z,11.10
2022-11-16T13:41:27.320Z,9.30
2022-11-16T13:44:29.503Z,6.10
2022-11-16T13:47:31.316Z,5.60
2022-11-16T13:50:37.943Z,6.80
2022-11-16T13:54:43.049Z,4.90
2022-11-16T13:57:35.109Z,3.30
2022-11-16T14:00:39.938Z,3.80
2022-11-16T14:03:44.409Z,4.00
2022-11-16T14:06:46.207Z,3.70
2022-11-16T14:09:49.345Z,4.30
2022-11-16T14:12:53.791Z,5.20
2022-11-16T14:16:14.275Z,4.00
2022-11-16T14:19:40.750Z,4.70
2022-11-16T14:23:15.539Z,4.00
2022-11-16T14:26:44.735Z,3.30
2022-11-16T14:29:55.651Z,3.80
2022-11-16T14:32:58.052Z,3.70
2022-11-16T14:36:03.867Z,4.30
2022-11-16T14:39:27.493Z,4.50
2022-11-16T14:42:48.123Z,4.50
2022-11-16T14:45:59.901Z,3.60
2022-11-16T14:49:03.311Z,3.50
2022-11-16T14:52:07.647Z,3.90
2022-11-16T14:55:17.621Z,3.30
2022-11-16T14:58:21.590Z,3.10
2022-11-16T15:01:27.172Z,3.50
2022-11-16T15:04:29.725Z,3.40
2022-11-16T15:07:32.063Z,3.30
2022-11-16T15:13:35.894Z,3.10
2022-11-16T15:16:49.464Z,3.10
2022-11-16T15:19:54.595Z,2.50
2022-11-16T15:22:59.642Z,2.50
2022-11-16T15:26:03.004Z,3.30
2022-11-16T15:29:04.996Z,2.80
2022-11-16T15:32:16.259Z,2.90
2022-11-16T15:35:28.856Z,2.40
2022-11-16T15:38:32.472Z,2.80
2022-11-16T15:41:38.891Z,3.50
2022-11-16T15:44:42.799Z,3.80
2022-11-16T15:47:46.517Z,3.20
2022-11-16T15:51:05.067Z,3.30
2022-11-16T15:54:54.647Z,3.50
2022-11-16T15:58:17.617Z,3.70
2022-11-16T16:01:20.352Z,4.20
2022-11-16T16:04:24.014Z,4.00
2022-11-16T16:07:37.270Z,4.10
2022-11-16T16:10:39.146Z,4.50
2022-11-16T16:13:43.596Z,3.80
2022-11-16T16:16:58.560Z,4.20
2022-11-16T16:20:03.183Z,4.90
2022-11-16T16:23:15.179Z,5.10
2022-11-16T16:26:17.989Z,5.40
2022-11-16T16:29:19.700Z,5.70
2022-11-16T16:32:24.208Z,6.00
2022-11-16T16:35:26.527Z,5.10
2022-11-16T16:41:30.021Z,4.50
2022-11-16T16:44:31.981Z,4.80
2022-11-16T16:47:33.641Z,4.70
2022-11-16T16:50:35.854Z,3.60
2022-11-16T16:53:37.593Z,4.00
2022-11-16T16:56:39.651Z,3.50
2022-11-16T16:59:45.277Z,3.60
2022-11-16T17:02:47.547Z,3.50
2022-11-16T17:05:52.824Z,3.40
2022-11-16T17:08:55.100Z,3.10
2022-11-16T17:15:04.032Z,2.60
2022-11-16T17:18:06.262Z,2.70
2022-11-16T17:24:11.133Z,2.80
2022-11-16T17:27:12.963Z,3.10
2022-11-16T17:30:15.196Z,3.70
2022-11-16T17:33:16.939Z,3.70
2022-11-16T17:36:19.411Z,3.50
2022-11-16T17:39:24.602Z,3.80
2022-11-16T17:42:26.312Z,3.80
2022-11-16T17:45:28.142Z,3.50
2022-11-16T17:48:30.278Z,3.40
2022-11-16T17:51:32.206Z,3.50
2022-11-16T17:54:34.575Z,3.70
2022-11-16T17:57:36.793Z,3.20
2022-11-16T18:03:40.932Z,3.10
2022-11-16T18:09:44.441Z,2.50
2022-11-16T18:12:46.181Z,2.60
2022-11-16T18:15:47.916Z,2.60
2022-11-16T18:18:56.595Z,2.40
2022-11-16T18:21:58.642Z,2.70
2022-11-16T18:25:00.527Z,2.80
2022-11-16T18:28:02.576Z,2.30
2022-11-16T18:31:14.762Z,2.10
2022-11-16T18:37:19.067Z,1.60
2022-11-16T18:40:21.204Z,1.40
2022-11-16T18:46:30.804Z,1.40
2022-11-16T18:49:32.661Z,1.60
2022-11-16T18:52:34.490Z,1.70
2022-11-16T18:55:36.167Z,1.40
2022-11-16T18:58:53.950Z,1.70
2022-11-16T19:01:55.860Z,1.70
2022-11-16T19:04:57.725Z,1.80
2022-11-16T19:08:00.273Z,2.00
2022-11-16T19:11:10.949Z,1.60
2022-11-16T19:14:12.876Z,1.70
2022-11-16T19:17:15.675Z,1.90
2022-11-16T19:20:17.872Z,1.90
2022-11-16T19:23:19.591Z,1.60
2022-11-16T19:26:24.099Z,1.40
2022-11-16T19:29:25.999Z,1.70
2022-11-16T19:32:27.995Z,1.90
2022-11-16T19:35:29.980Z,1.70
2022-11-16T19:38:31.841Z,1.80
2022-11-16T19:41:34.015Z,1.80
2022-11-16T19:47:39.026Z,1.90
2022-11-16T19:50:41.847Z,1.80
2022-11-16T19:53:45.019Z,1.90
2022-11-16T19:56:50.577Z,1.80
2022-11-16T19:59:55.862Z,1.70
2022-11-16T20:02:57.772Z,2.10
2022-11-16T20:06:14.663Z,2.30
2022-11-16T20:09:17.067Z,2.40
2022-11-16T20:15:22.922Z,2.30
2022-11-16T20:18:24.731Z,2.90
2022-11-16T20:21:34.667Z,2.80
2022-11-16T20:24:36.577Z,2.70
2022-11-16T20:27:38.864Z,2.80
2022-11-16T20:30:48.722Z,2.60
2022-11-16T20:33:54.241Z,2.60
2022-11-16T20:36:56.135Z,2.50
2022-11-16T20:39:57.950Z,2.90
2022-11-16T20:43:00.854Z,2.10
2022-11-16T20:46:02.786Z,2.60
2022-11-16T20:49:04.657Z,2.20
2022-11-16T20:52:06.569Z,2.40
2022-11-16T20:55:08.990Z,2.70
2022-11-16T21:01:17.807Z,2.60
2022-11-16T21:04:20.034Z,2.40
2022-11-16T21:07:23.559Z,2.50
2022-11-16T21:10:25.747Z,2.80
2022-11-16T21:13:46.139Z,2.30
2022-11-16T21:16:48.101Z,2.60
2022-11-16T21:20:20.079Z,2.40
2022-11-16T21:23:12.835Z,2.90
2022-11-16T21:26:15.109Z,2.60
2022-11-16T21:29:16.731Z,3.30
2022-11-16T21:32:18.408Z,2.60
2022-11-16T21:35:20.342Z,2.70
2022-11-16T21:38:24.667Z,2.50
2022-11-16T21:41:26.810Z,2.50
2022-11-16T21:44:41.082Z,2.50
2022-11-16T21:47:42.671Z,2.40
2022-11-16T21:50:44.310Z,3.00
2022-11-16T21:53:46.138Z,2.60
2022-11-16T21:56:47.776Z,2.40
2022-11-16T21:59:49.413Z,3.00
2022-11-16T22:02:51.118Z,2.90
2022-11-16T22:06:12.215Z,2.30
2022-11-16T22:09:13.812Z,2.40
2022-11-16T22:12:15.459Z,2.20
2022-11-16T22:15:17.398Z,2.70
2022-11-16T22:18:18.993Z,2.40
2022-11-16T22:21:20.629Z,1.80
2022-11-16T22:24:22.266Z,2.10
2022-11-16T22:27:24.157Z,2.40
2022-11-16T22:30:25.787Z,2.30
2022-11-16T22:33:29.208Z,2.90
2022-11-16T22:36:30.858Z,2.60
2022-11-16T22:39:32.592Z,3.10
2022-11-16T22:42:34.240Z,2.30
2022-11-16T22:45:35.885Z,2.40
2022-11-16T22:48:39.014Z,2.70
2022-11-16T22:51:40.666Z,2.70
2022-11-16T22:54:42.375Z,3.00
2022-11-16T22:57:43.976Z,2.50
2022-11-16T23:00:45.554Z,3.20
2022-11-16T23:03:47.576Z,2.70
2022-11-16T23:06:49.479Z,2.70
2022-11-16T23:09:51.205Z,2.90
2022-11-16T23:13:11.299Z,4.10
2022-11-16T23:16:12.895Z,2.90
2022-11-16T23:19:52.542Z,3.60
2022-11-16T23:23:12.742Z,3.10
2022-11-16T23:26:40.855Z,3.30
2022-11-16T23:29:42.931Z,3.30
2022-11-16T23:32:44.666Z,3.40
2022-11-16T23:35:46.305Z,3.10
2022-11-16T23:38:48.086Z,3.20
2022-11-16T23:42:08.590Z,3.20
2022-11-16T23:45:10.267Z,3.40
2022-11-16T23:48:15.788Z,3.30
2022-11-16T23:51:18.173Z,3.00
2022-11-16T23:54:19.829Z,3.10
2022-11-16T23:57:21.398Z,3.00
